New England, North Dakota
Current Conditions -  °F | °C
As of 5:56 PM on Tuesday 21 Oct 2014 (Local Time) from KDIK Reporting Station
Clear Clear  
Wind Chill: 65°   Ceiling: Unl
Heat Index: 65°   Visibility: 10mi
Dew Point: 46°   Wind: 9mph
Humidity: 50%   Direction: 150°SSE
Pressure: 29.6"   Gusts: NA
Location:  46.54°N, 102.87°W
Report Text: KDIK 212356Z AUTO 15008KT 10SM CLR 18/08 A2960 RMK AO2 SLP024 T01830078 10261 20183 56006
Loading
Personal Weather Stations






























Interactive Weather Map
Tropical Storm Tracking
New forecast layout! Learn more

10-Day Weather Forecast

Advertisements
Track Severe Weather on mobile